createdAt,value
2022-08-26T00:01:37.976Z,13.18
2022-08-26T00:04:04.815Z,9.23
2022-08-26T00:06:32.897Z,10.10
2022-08-26T00:09:00.109Z,13.27
2022-08-26T00:11:27.521Z,8.15
2022-08-26T00:13:55.821Z,11.85
2022-08-26T00:16:25.103Z,6.80
2022-08-26T00:18:53.057Z,8.48
2022-08-26T00:21:20.079Z,14.45
2022-08-26T00:23:47.047Z,12.43
2022-08-26T00:26:14.449Z,12.00
2022-08-26T00:28:41.614Z,17.50
2022-08-26T00:31:11.084Z,13.85
2022-08-26T00:33:38.995Z,6.20
2022-08-26T00:36:06.678Z,12.80
2022-08-26T00:38:34.002Z,5.47
2022-08-26T00:41:00.776Z,11.00
2022-08-26T00:43:30.247Z,20.55
2022-08-26T00:46:37.179Z,7.10
2022-08-26T00:49:16.090Z,7.10
2022-08-26T00:51:47.929Z,10.45
2022-08-26T00:54:15.411Z,10.32
2022-08-26T00:56:50.769Z,8.17
2022-08-26T00:59:18.023Z,7.47
2022-08-26T01:01:46.079Z,10.18
2022-08-26T01:04:17.729Z,14.10
2022-08-26T01:06:45.536Z,4.10
2022-08-26T01:09:12.530Z,11.93
2022-08-26T01:11:40.065Z,15.68
2022-08-26T01:14:08.630Z,5.65
2022-08-26T01:16:36.554Z,4.70
2022-08-26T01:19:16.081Z,7.72
2022-08-26T01:21:55.535Z,6.57
2022-08-26T01:24:22.465Z,12.05
2022-08-26T01:26:49.618Z,14.73
2022-08-26T01:29:19.156Z,4.88
2022-08-26T01:31:52.748Z,5.20
2022-08-26T01:34:23.974Z,10.82
2022-08-26T01:36:58.810Z,8.93
2022-08-26T01:39:25.532Z,6.53
2022-08-26T01:41:57.024Z,4.60
2022-08-26T01:44:29.167Z,8.00
2022-08-26T01:46:58.803Z,14.43
2022-08-26T01:49:27.080Z,12.40
2022-08-26T01:51:57.079Z,19.45
2022-08-26T01:54:25.420Z,29.13
2022-08-26T01:56:54.504Z,35.63
2022-08-26T01:59:24.316Z,38.95
2022-08-26T02:01:51.901Z,31.25
2022-08-26T02:04:33.758Z,25.63
2022-08-26T02:07:08.342Z,32.22
2022-08-26T02:09:41.235Z,40.90
2022-08-26T02:12:10.672Z,31.00
2022-08-26T02:14:44.439Z,37.15
2022-08-26T02:17:12.113Z,37.88
2022-08-26T02:19:45.538Z,50.72
2022-08-26T02:22:16.758Z,31.85
2022-08-26T02:24:51.401Z,27.58
2022-08-26T02:27:22.655Z,25.50
2022-08-26T02:29:55.874Z,22.88
2022-08-26T02:32:22.692Z,27.00
2022-08-26T02:34:50.266Z,38.28
2022-08-26T02:37:17.633Z,58.33
2022-08-26T02:39:44.831Z,50.53
2022-08-26T02:42:11.999Z,30.83
2022-08-26T02:44:38.922Z,40.28
2022-08-26T02:47:07.534Z,33.17
2022-08-26T02:49:34.913Z,32.40
2022-08-26T02:52:02.067Z,34.20
2022-08-26T02:54:29.074Z,39.90
2022-08-26T02:56:56.349Z,34.45
2022-08-26T02:59:24.287Z,35.72
2022-08-26T03:01:51.328Z,25.40
2022-08-26T03:04:18.391Z,18.85
2022-08-26T03:06:47.099Z,19.40
2022-08-26T03:09:20.086Z,16.77
2022-08-26T03:11:47.386Z,17.23
2022-08-26T03:14:14.227Z,17.17
2022-08-26T03:16:41.040Z,14.40
2022-08-26T03:19:09.688Z,14.18
2022-08-26T03:21:38.693Z,13.05
2022-08-26T03:24:06.239Z,8.57
2022-08-26T03:26:32.985Z,11.23
2022-08-26T03:29:18.205Z,11.07
2022-08-26T03:31:47.120Z,11.15
2022-08-26T03:34:14.238Z,9.32
2022-08-26T03:36:41.650Z,8.30
2022-08-26T03:39:08.830Z,10.88
2022-08-26T03:41:37.009Z,5.77
2022-08-26T03:44:06.218Z,12.85
2022-08-26T03:46:34.127Z,12.40
2022-08-26T03:49:02.494Z,21.73
2022-08-26T03:51:29.698Z,15.18
2022-08-26T03:56:25.141Z,9.85
2022-08-26T03:58:53.527Z,14.20
2022-08-26T04:01:20.388Z,20.65
2022-08-26T04:04:00.863Z,19.57
2022-08-26T04:06:30.195Z,20.42
2022-08-26T04:09:00.149Z,25.00
2022-08-26T04:11:34.302Z,21.58
2022-08-26T04:14:05.337Z,27.63
2022-08-26T04:16:32.584Z,30.08
2022-08-26T04:18:59.552Z,23.73
2022-08-26T04:21:27.487Z,20.63
2022-08-26T04:23:54.663Z,26.25
2022-08-26T04:26:22.826Z,23.63
2022-08-26T04:28:52.238Z,20.38
2022-08-26T04:31:19.832Z,26.40
2022-08-26T04:33:49.991Z,19.77
2022-08-26T04:36:17.696Z,24.40
2022-08-26T04:38:47.617Z,18.10
2022-08-26T04:41:15.325Z,26.50
2022-08-26T04:43:43.712Z,27.30
2022-08-26T04:46:12.947Z,28.70
2022-08-26T04:48:41.190Z,25.13
2022-08-26T04:51:09.711Z,25.05
2022-08-26T04:56:04.806Z,21.95
2022-08-26T04:58:32.298Z,11.23
2022-08-26T05:00:59.879Z,17.58
2022-08-26T05:03:30.617Z,14.45
2022-08-26T05:05:57.912Z,14.13
2022-08-26T05:08:25.109Z,17.20
2022-08-26T05:10:57.161Z,15.03
2022-08-26T05:13:26.955Z,15.65
2022-08-26T05:15:54.501Z,13.55
2022-08-26T05:18:25.889Z,14.18
2022-08-26T05:20:54.945Z,9.02
2022-08-26T05:23:23.852Z,16.45
2022-08-26T05:25:57.093Z,10.93
2022-08-26T05:28:28.470Z,11.95
2022-08-26T05:30:56.580Z,11.40
2022-08-26T05:33:23.433Z,6.65
2022-08-26T05:35:50.545Z,11.45
2022-08-26T05:38:20.048Z,14.45
2022-08-26T05:40:52.738Z,12.05
2022-08-26T05:43:21.550Z,9.43
2022-08-26T05:48:18.910Z,13.20
2022-08-26T05:50:51.854Z,12.07
2022-08-26T05:53:21.906Z,16.38
2022-08-26T05:55:51.986Z,22.20
2022-08-26T05:58:21.007Z,14.55
2022-08-26T06:01:01.280Z,16.20
2022-08-26T06:03:29.415Z,16.55
2022-08-26T06:08:24.531Z,17.33
2022-08-26T06:10:54.471Z,25.02
2022-08-26T06:13:24.414Z,26.02
2022-08-26T06:15:52.154Z,18.33
2022-08-26T06:18:25.379Z,20.60
2022-08-26T06:20:57.278Z,24.02
2022-08-26T06:23:45.323Z,20.02
2022-08-26T06:26:14.164Z,21.95
2022-08-26T06:28:41.029Z,20.13
2022-08-26T06:31:12.726Z,16.35
2022-08-26T06:33:39.826Z,19.10
2022-08-26T06:36:07.179Z,16.77
2022-08-26T06:38:34.379Z,16.80
2022-08-26T06:41:03.379Z,13.02
2022-08-26T06:43:30.157Z,18.15
2022-08-26T06:46:02.670Z,15.38
2022-08-26T06:48:32.216Z,18.90
2022-08-26T06:51:20.064Z,17.83
2022-08-26T06:53:51.270Z,19.88
2022-08-26T06:56:21.586Z,13.57
2022-08-26T06:58:49.114Z,14.18
2022-08-26T07:01:20.604Z,17.45
2022-08-26T07:03:48.834Z,18.17
2022-08-26T07:06:18.510Z,16.63
2022-08-26T07:09:04.870Z,14.65
2022-08-26T07:11:35.503Z,15.32
2022-08-26T07:14:02.393Z,18.25
2022-08-26T07:16:30.032Z,16.25
2022-08-26T07:18:57.937Z,15.00
2022-08-26T07:21:25.914Z,15.75
2022-08-26T07:23:58.707Z,18.92
2022-08-26T07:26:30.216Z,17.83
2022-08-26T07:28:58.565Z,27.98
2022-08-26T07:31:28.565Z,23.48
2022-08-26T07:33:57.197Z,20.65
2022-08-26T07:36:28.229Z,19.17
2022-08-26T07:38:55.091Z,23.70
2022-08-26T07:41:24.110Z,20.98
2022-08-26T07:43:53.997Z,18.33
2022-08-26T07:46:27.050Z,16.92
2022-08-26T07:48:54.662Z,22.05
2022-08-26T07:51:22.848Z,19.90
2022-08-26T07:53:52.364Z,22.02
2022-08-26T07:56:20.202Z,19.73
2022-08-26T07:58:51.366Z,20.63
2022-08-26T08:01:18.855Z,21.35
2022-08-26T08:03:45.740Z,20.77
2022-08-26T08:06:12.522Z,16.25
2022-08-26T08:08:41.476Z,14.80
2022-08-26T08:11:10.027Z,20.20
2022-08-26T08:13:38.062Z,16.17
2022-08-26T08:16:05.811Z,20.20
2022-08-26T08:18:32.805Z,17.52
2022-08-26T08:21:19.950Z,16.23
2022-08-26T08:23:49.738Z,15.10
2022-08-26T08:26:16.892Z,18.37
2022-08-26T08:28:44.066Z,16.00
2022-08-26T08:31:38.983Z,12.18
2022-08-26T08:34:09.146Z,14.27
2022-08-26T08:36:36.449Z,12.98
2022-08-26T08:39:03.918Z,13.43
2022-08-26T08:41:31.475Z,14.77
2022-08-26T08:44:01.547Z,10.97
2022-08-26T08:46:30.214Z,15.65
2022-08-26T08:48:59.936Z,14.00
2022-08-26T08:51:52.273Z,13.38
2022-08-26T08:54:19.603Z,12.93
2022-08-26T08:57:18.394Z,12.60
2022-08-26T08:59:56.466Z,10.00
2022-08-26T09:02:47.983Z,12.60
2022-08-26T09:05:19.471Z,9.43
2022-08-26T09:08:02.466Z,14.18
2022-08-26T09:10:44.232Z,13.65
2022-08-26T09:13:16.347Z,10.15
2022-08-26T09:15:47.124Z,12.55
2022-08-26T09:18:35.666Z,9.98
2022-08-26T09:21:06.515Z,9.43
2022-08-26T09:23:36.819Z,10.27
2022-08-26T09:26:29.330Z,11.45
2022-08-26T09:29:00.261Z,9.30
2022-08-26T09:31:29.862Z,7.72
2022-08-26T09:34:18.477Z,9.55
2022-08-26T09:37:04.680Z,7.63
2022-08-26T09:39:39.314Z,9.88
2022-08-26T09:42:14.250Z,6.65
2022-08-26T09:45:05.016Z,17.67
2022-08-26T09:47:41.742Z,35.88
2022-08-26T09:50:29.154Z,24.63
2022-08-26T09:53:17.283Z,22.48
2022-08-26T09:55:50.558Z,13.15
2022-08-26T09:58:34.129Z,9.65
2022-08-26T10:01:03.843Z,12.73
2022-08-26T10:03:35.551Z,9.80
2022-08-26T10:06:17.309Z,9.45
2022-08-26T10:08:48.131Z,9.80
2022-08-26T10:11:23.130Z,12.00
2022-08-26T10:13:56.591Z,18.95
2022-08-26T10:17:15.755Z,54.58
2022-08-26T10:19:57.115Z,13.10
2022-08-26T10:22:30.490Z,12.95
2022-08-26T10:25:02.743Z,6.60
2022-08-26T10:28:02.901Z,7.55
2022-08-26T10:30:45.681Z,9.07
2022-08-26T10:33:15.572Z,5.18
2022-08-26T10:35:54.234Z,8.45
2022-08-26T10:38:30.207Z,10.30
2022-08-26T10:41:25.464Z,10.65
2022-08-26T10:43:59.867Z,9.93
2022-08-26T10:46:34.584Z,5.65
2022-08-26T10:49:09.004Z,9.05
2022-08-26T10:51:49.116Z,9.65
2022-08-26T10:54:46.588Z,9.38
2022-08-26T10:57:29.183Z,7.88
2022-08-26T11:00:01.850Z,6.50
2022-08-26T11:02:46.980Z,8.75
2022-08-26T11:05:23.809Z,9.75
2022-08-26T11:07:54.960Z,11.60
2022-08-26T11:10:22.546Z,7.03
2022-08-26T11:12:52.372Z,10.93
2022-08-26T11:15:24.697Z,3.92
2022-08-26T11:17:51.584Z,12.13
2022-08-26T11:20:33.365Z,7.55
2022-08-26T11:23:27.149Z,9.68
2022-08-26T11:25:57.436Z,7.35
2022-08-26T11:28:34.635Z,8.80
2022-08-26T11:31:02.401Z,14.30
2022-08-26T11:33:43.955Z,8.10
2022-08-26T11:36:28.666Z,9.88
2022-08-26T11:38:55.370Z,7.75
2022-08-26T11:41:24.427Z,12.30
2022-08-26T11:43:52.319Z,8.50
2022-08-26T11:46:31.543Z,13.50
2022-08-26T11:49:06.800Z,12.88
2022-08-26T11:51:40.484Z,14.93
2022-08-26T11:54:16.038Z,8.25
2022-08-26T11:56:44.848Z,6.93
2022-08-26T11:59:17.837Z,8.30
2022-08-26T12:01:49.067Z,10.48
2022-08-26T12:04:43.521Z,7.47
2022-08-26T12:07:10.346Z,9.50
2022-08-26T12:09:50.602Z,11.70
2022-08-26T12:12:23.773Z,7.05
2022-08-26T12:15:16.947Z,7.50
2022-08-26T12:17:45.775Z,7.80
2022-08-26T12:20:19.549Z,11.60
2022-08-26T12:22:48.207Z,10.45
2022-08-26T12:27:53.739Z,7.22
2022-08-26T12:30:26.092Z,8.95
2022-08-26T12:33:22.074Z,7.57
2022-08-26T12:35:56.325Z,5.82
2022-08-26T12:38:25.392Z,10.38
2022-08-26T12:40:52.803Z,8.10
2022-08-26T12:43:39.692Z,7.13
2022-08-26T12:46:07.861Z,8.20
2022-08-26T12:48:38.663Z,5.72
2022-08-26T12:51:20.338Z,7.70
2022-08-26T12:53:47.300Z,11.77
2022-08-26T12:56:40.197Z,7.40
2022-08-26T12:59:21.012Z,7.35
2022-08-26T13:01:49.537Z,11.75
2022-08-26T13:04:42.619Z,8.10
2022-08-26T13:07:27.490Z,8.23
2022-08-26T13:09:57.174Z,8.40
2022-08-26T13:12:31.251Z,9.27
2022-08-26T13:15:05.096Z,10.48
2022-08-26T13:17:32.432Z,7.65
2022-08-26T13:20:03.568Z,6.75
2022-08-26T13:22:31.236Z,8.32
2022-08-26T13:24:58.116Z,8.48
2022-08-26T13:27:26.479Z,7.72
2022-08-26T13:29:54.450Z,8.35
2022-08-26T13:32:27.350Z,8.75
2022-08-26T13:34:56.465Z,10.40
2022-08-26T13:37:24.508Z,5.65
2022-08-26T13:40:04.800Z,9.15
2022-08-26T13:42:31.803Z,4.75
2022-08-26T13:44:58.934Z,6.57
2022-08-26T13:47:27.628Z,4.45
2022-08-26T13:49:55.424Z,9.40
2022-08-26T13:52:27.346Z,8.85
2022-08-26T13:54:59.565Z,7.93
2022-08-26T13:57:28.360Z,5.57
2022-08-26T13:59:56.519Z,6.10
2022-08-26T14:02:23.598Z,9.05
2022-08-26T14:04:50.341Z,13.50
2022-08-26T14:07:17.002Z,66.03
2022-08-26T14:09:43.759Z,12.73
2022-08-26T14:12:10.410Z,9.38
2022-08-26T14:14:37.122Z,12.23
2022-08-26T14:17:05.593Z,4.47
2022-08-26T14:19:32.318Z,6.88
2022-08-26T14:22:00.835Z,5.85
2022-08-26T14:24:29.037Z,8.23
2022-08-26T14:26:55.897Z,7.80
2022-08-26T14:29:22.494Z,8.95
2022-08-26T14:31:49.336Z,7.60
2022-08-26T14:34:16.134Z,5.90
2022-08-26T14:36:43.479Z,6.60
2022-08-26T14:39:13.202Z,8.27
2022-08-26T14:41:54.977Z,8.18
2022-08-26T14:44:32.622Z,7.40
2022-08-26T14:47:01.522Z,8.48
2022-08-26T14:49:28.419Z,7.10
2022-08-26T14:51:55.480Z,5.97
2022-08-26T14:54:22.183Z,4.97
2022-08-26T14:56:58.778Z,7.50
2022-08-26T14:59:50.278Z,7.47
2022-08-26T15:02:27.736Z,9.27
2022-08-26T15:05:00.821Z,8.57
2022-08-26T15:07:27.646Z,9.43
2022-08-26T15:09:54.237Z,7.72
2022-08-26T15:12:21.816Z,12.20
2022-08-26T15:14:48.711Z,3.65
2022-08-26T15:17:15.402Z,6.72
2022-08-26T15:19:41.984Z,5.32
2022-08-26T15:22:08.998Z,3.35
2022-08-26T15:24:36.389Z,6.53
2022-08-26T15:27:03.307Z,6.60
2022-08-26T15:29:30.270Z,3.67
2022-08-26T15:31:58.344Z,4.78
2022-08-26T15:34:25.012Z,6.32
2022-08-26T15:36:51.890Z,6.82
2022-08-26T15:39:19.389Z,20.50
2022-08-26T15:41:46.723Z,5.75
2022-08-26T15:44:14.619Z,6.93
2022-08-26T15:46:42.066Z,5.50
2022-08-26T15:49:09.240Z,7.07
2022-08-26T15:51:47.127Z,3.85
2022-08-26T15:54:16.631Z,4.30
2022-08-26T15:56:44.085Z,10.98
2022-08-26T15:59:11.853Z,7.17
2022-08-26T16:01:39.161Z,5.78
2022-08-26T16:04:06.546Z,5.30
2022-08-26T16:06:36.946Z,5.10
2022-08-26T16:09:04.656Z,4.65
2022-08-26T16:11:31.500Z,5.18
2022-08-26T16:13:58.702Z,5.85
2022-08-26T16:16:26.312Z,3.92
2022-08-26T16:18:53.539Z,6.43
2022-08-26T16:21:24.662Z,8.18
2022-08-26T16:23:51.822Z,9.10
2022-08-26T16:26:25.077Z,5.03
2022-08-26T16:28:52.578Z,5.47
2022-08-26T16:31:19.802Z,4.38
2022-08-26T16:33:46.628Z,10.80
2022-08-26T16:36:14.577Z,4.43
2022-08-26T16:38:42.351Z,6.97
2022-08-26T16:41:09.216Z,7.03
2022-08-26T16:43:36.818Z,7.78
2022-08-26T16:46:07.033Z,8.43
2022-08-26T16:48:34.392Z,6.32
2022-08-26T16:51:01.279Z,6.53
2022-08-26T16:53:28.242Z,4.88
2022-08-26T16:55:55.398Z,7.82
2022-08-26T16:58:22.480Z,5.00
2022-08-26T17:00:49.500Z,6.28
2022-08-26T17:03:16.313Z,5.25
2022-08-26T17:05:43.165Z,6.15
2022-08-26T17:08:10.210Z,5.80
2022-08-26T17:10:37.816Z,8.30
2022-08-26T17:13:04.828Z,3.60
2022-08-26T17:15:31.752Z,5.95
2022-08-26T17:17:59.126Z,6.10
2022-08-26T17:20:26.561Z,6.57
2022-08-26T17:22:55.444Z,5.37
2022-08-26T17:25:24.495Z,7.10
2022-08-26T17:27:51.244Z,4.32
2022-08-26T17:30:18.303Z,7.57
2022-08-26T17:32:45.845Z,7.93
2022-08-26T17:35:14.091Z,7.85
2022-08-26T17:40:11.003Z,7.75
2022-08-26T17:42:39.464Z,5.53
2022-08-26T17:45:07.520Z,8.20
2022-08-26T17:47:34.790Z,9.77
2022-08-26T17:50:01.919Z,6.22
2022-08-26T17:52:29.329Z,7.63
2022-08-26T17:54:57.161Z,3.83
2022-08-26T17:57:24.977Z,6.72
2022-08-26T17:59:52.828Z,5.40
2022-08-26T18:02:21.015Z,9.38
2022-08-26T18:07:15.154Z,4.45
2022-08-26T18:09:42.434Z,9.00
2022-08-26T18:12:10.219Z,5.43
2022-08-26T18:14:37.416Z,14.88
2022-08-26T18:17:04.310Z,6.25
2022-08-26T18:19:31.538Z,7.07
2022-08-26T18:21:58.435Z,5.67
2022-08-26T18:24:25.424Z,6.13
2022-08-26T18:26:52.218Z,11.23
2022-08-26T18:29:19.745Z,6.57
2022-08-26T18:31:46.649Z,9.20
2022-08-26T18:34:15.571Z,5.75
2022-08-26T18:36:43.871Z,5.38
2022-08-26T18:41:50.407Z,3.30
2022-08-26T18:44:19.529Z,3.17
2022-08-26T18:46:47.451Z,5.88
2022-08-26T18:49:16.056Z,7.50
2022-08-26T18:51:43.389Z,4.63
2022-08-26T18:54:11.723Z,4.13
2022-08-26T18:56:40.221Z,9.68
2022-08-26T18:59:08.492Z,5.43
2022-08-26T19:04:05.049Z,7.05
2022-08-26T19:06:33.459Z,8.68
2022-08-26T19:09:00.560Z,5.78
2022-08-26T19:11:32.163Z,7.70
2022-08-26T19:14:09.192Z,8.20
2022-08-26T19:16:37.524Z,6.90
2022-08-26T19:19:04.651Z,10.82
2022-08-26T19:21:33.194Z,8.40
2022-08-26T19:24:02.733Z,6.57
2022-08-26T19:26:30.385Z,5.45
2022-08-26T19:28:58.115Z,4.85
2022-08-26T19:31:26.228Z,7.00
2022-08-26T19:36:23.744Z,8.07
2022-08-26T19:38:51.511Z,10.82
2022-08-26T19:41:21.322Z,5.80
2022-08-26T19:43:49.056Z,8.35
2022-08-26T19:46:19.029Z,7.68
2022-08-26T19:48:47.018Z,6.85
2022-08-26T19:51:19.934Z,7.75
2022-08-26T19:53:48.152Z,8.13
2022-08-26T19:58:42.364Z,5.13
2022-08-26T20:01:09.353Z,8.93
2022-08-26T20:03:37.281Z,9.00
2022-08-26T20:06:06.041Z,8.13
2022-08-26T20:08:34.174Z,10.93
2022-08-26T20:11:02.366Z,10.50
2022-08-26T20:13:29.455Z,6.25
2022-08-26T20:15:56.243Z,8.73
2022-08-26T20:18:41.246Z,11.70
2022-08-26T20:21:26.381Z,10.75
2022-08-26T20:24:06.144Z,6.97
2022-08-26T20:26:35.490Z,13.40
2022-08-26T20:29:02.571Z,12.10
2022-08-26T20:31:29.991Z,10.57
2022-08-26T20:33:57.486Z,10.63
2022-08-26T20:36:26.955Z,12.55
2022-08-26T20:38:55.224Z,15.35
2022-08-26T20:43:50.813Z,7.30
2022-08-26T20:46:21.026Z,6.93
2022-08-26T20:48:49.985Z,10.40
2022-08-26T20:51:18.388Z,7.30
2022-08-26T20:53:45.999Z,9.57
2022-08-26T20:56:14.506Z,9.63
2022-08-26T20:58:41.974Z,10.00
2022-08-26T21:01:17.928Z,10.20
2022-08-26T21:03:45.330Z,11.13
2022-08-26T21:06:12.493Z,7.93
2022-08-26T21:08:42.520Z,7.50
2022-08-26T21:11:10.209Z,5.40
2022-08-26T21:13:54.395Z,9.82
2022-08-26T21:16:25.201Z,13.52
2022-08-26T21:18:52.689Z,10.52
2022-08-26T21:21:25.110Z,12.20
2022-08-26T21:23:52.307Z,7.68
2022-08-26T21:26:19.186Z,8.55
2022-08-26T21:28:46.411Z,14.70
2022-08-26T21:31:16.988Z,7.43
2022-08-26T21:33:43.638Z,13.02
2022-08-26T21:36:11.780Z,13.02
2022-08-26T21:38:39.141Z,11.85
2022-08-26T21:41:09.289Z,9.05
2022-08-26T21:43:36.712Z,12.00
2022-08-26T21:46:14.662Z,8.47
2022-08-26T21:48:47.618Z,6.00
2022-08-26T21:51:19.228Z,10.30
2022-08-26T21:53:45.983Z,9.13
2022-08-26T21:56:15.247Z,6.78
2022-08-26T21:58:42.290Z,8.07
2022-08-26T22:01:11.522Z,11.75
2022-08-26T22:03:47.679Z,9.07
2022-08-26T22:06:21.102Z,7.55
2022-08-26T22:08:47.977Z,10.85
2022-08-26T22:11:15.635Z,7.72
2022-08-26T22:13:43.712Z,13.95
2022-08-26T22:16:11.520Z,10.32
2022-08-26T22:18:39.348Z,7.55
2022-08-26T22:21:08.746Z,7.93
2022-08-26T22:23:37.077Z,11.00
2022-08-26T22:28:31.917Z,10.90
2022-08-26T22:30:58.679Z,9.20
2022-08-26T22:33:26.433Z,5.55
2022-08-26T22:35:54.115Z,7.45
2022-08-26T22:38:23.915Z,9.27
2022-08-26T22:40:57.864Z,5.45
2022-08-26T22:43:26.010Z,7.05
2022-08-26T22:45:54.097Z,9.73
2022-08-26T22:48:25.130Z,9.05
2022-08-26T22:51:00.044Z,8.38
2022-08-26T22:53:27.574Z,8.70
2022-08-26T22:55:54.549Z,6.43
2022-08-26T22:58:21.678Z,7.75
2022-08-26T23:00:57.728Z,11.25
2022-08-26T23:03:26.309Z,9.32
2022-08-26T23:05:53.401Z,6.85
2022-08-26T23:08:20.469Z,4.28
2022-08-26T23:10:48.447Z,5.90
2022-08-26T23:13:16.120Z,9.93
2022-08-26T23:15:44.753Z,6.63
2022-08-26T23:18:12.676Z,8.13
2022-08-26T23:20:40.781Z,11.27
2022-08-26T23:23:07.950Z,10.07
2022-08-26T23:25:35.499Z,13.57
2022-08-26T23:28:02.766Z,7.80
2022-08-26T23:30:31.735Z,8.20
2022-08-26T23:32:58.528Z,8.40
2022-08-26T23:35:25.854Z,9.90
2022-08-26T23:37:53.184Z,5.60
2022-08-26T23:40:33.078Z,6.53
2022-08-26T23:43:03.462Z,10.52
2022-08-26T23:45:32.420Z,8.60
2022-08-26T23:47:59.721Z,7.10
2022-08-26T23:50:48.863Z,6.07
2022-08-26T23:53:19.942Z,7.75
2022-08-26T23:55:55.902Z,8.68
2022-08-26T23:58:22.831Z,5.30
